Terminal Aerodrome Forecast
Issued by NWS Paducah, KY

Home | Current Version | Previous Version | Text Only | Print | Product List | Glossary On
Versions: 1 2 3 4 5 6 7 8 9 10 11 12 13
000
FTUS43 KPAH 012300
TAFEVV
TAF
KEVV 012320Z 0200/0224 17003KT P6SM SCT070
     FM021500 18007KT P6SM SCT040 BKN070
     FM021900 18010G16KT P6SM SCT050 BKN100=

USA.gov is the U.S. government's official web portal to all federal, state and local government web resources and services.